sensor_id;sensor_type;location;lat;lon;timestamp;temperature;humidity
17740;DHT22;8990;33.226;-97.150;2022-09-17T00:01:58;31.00;99.90
17740;DHT22;8990;33.226;-97.150;2022-09-17T00:04:30;30.90;99.90
17740;DHT22;8990;33.226;-97.150;2022-09-17T00:07:00;30.90;99.90
17740;DHT22;8990;33.226;-97.150;2022-09-17T00:09:30;30.90;99.90
17740;DHT22;8990;33.226;-97.150;2022-09-17T00:11:59;30.90;99.90
17740;DHT22;8990;33.226;-97.150;2022-09-17T00:14:28;30.80;99.90
17740;DHT22;8990;33.226;-97.150;2022-09-17T00:16:58;30.80;99.90
17740;DHT22;8990;33.226;-97.150;2022-09-17T00:19:29;30.80;99.90
17740;DHT22;8990;33.226;-97.150;2022-09-17T00:22:01;30.80;99.90
17740;DHT22;8990;33.226;-97.150;2022-09-17T00:24:30;30.70;99.90
17740;DHT22;8990;33.226;-97.150;2022-09-17T00:26:59;30.70;99.90
17740;DHT22;8990;33.226;-97.150;2022-09-17T00:29:28;30.70;99.90
17740;DHT22;8990;33.226;-97.150;2022-09-17T00:31:58;30.60;99.90
17740;DHT22;8990;33.226;-97.150;2022-09-17T00:34:27;30.60;99.90
17740;DHT22;8990;33.226;-97.150;2022-09-17T00:36:58;30.60;99.90
17740;DHT22;8990;33.226;-97.150;2022-09-17T00:39:28;30.50;99.90
17740;DHT22;8990;33.226;-97.150;2022-09-17T00:41:57;30.40;99.90
17740;DHT22;8990;33.226;-97.150;2022-09-17T00:44:47;30.30;99.90
17740;DHT22;8990;33.226;-97.150;2022-09-17T00:47:22;30.20;99.90
17740;DHT22;8990;33.226;-97.150;2022-09-17T00:49:54;30.10;99.90
17740;DHT22;8990;33.226;-97.150;2022-09-17T00:52:31;30.10;99.90
17740;DHT22;8990;33.226;-97.150;2022-09-17T00:55:09;30.10;99.90
17740;DHT22;8990;33.226;-97.150;2022-09-17T00:57:40;30.00;99.90
17740;DHT22;8990;33.226;-97.150;2022-09-17T01:00:14;29.90;99.90
17740;DHT22;8990;33.226;-97.150;2022-09-17T01:02:44;29.90;99.90
17740;DHT22;8990;33.226;-97.150;2022-09-17T01:05:14;29.80;99.90
17740;DHT22;8990;33.226;-97.150;2022-09-17T01:07:55;29.80;99.90
17740;DHT22;8990;33.226;-97.150;2022-09-17T01:10:55;29.70;99.90
17740;DHT22;8990;33.226;-97.150;2022-09-17T01:13:36;29.80;99.90
17740;DHT22;8990;33.226;-97.150;2022-09-17T01:16:14;29.80;99.90
17740;DHT22;8990;33.226;-97.150;2022-09-17T01:18:58;29.70;99.90
17740;DHT22;8990;33.226;-97.150;2022-09-17T01:21:45;29.80;99.90
17740;DHT22;8990;33.226;-97.150;2022-09-17T01:24:43;29.70;99.90
17740;DHT22;8990;33.226;-97.150;2022-09-17T01:27:48;29.60;99.90
17740;DHT22;8990;33.226;-97.150;2022-09-17T01:31:02;29.50;99.90
17740;DHT22;8990;33.226;-97.150;2022-09-17T01:33:39;29.50;99.90
17740;DHT22;8990;33.226;-97.150;2022-09-17T01:36:24;29.40;99.90
17740;DHT22;8990;33.226;-97.150;2022-09-17T01:39:04;29.30;99.90
17740;DHT22;8990;33.226;-97.150;2022-09-17T01:41:40;29.40;99.90
17740;DHT22;8990;33.226;-97.150;2022-09-17T01:44:14;29.40;99.90
17740;DHT22;8990;33.226;-97.150;2022-09-17T01:46:50;29.30;99.90
17740;DHT22;8990;33.226;-97.150;2022-09-17T01:49:21;29.30;99.90
17740;DHT22;8990;33.226;-97.150;2022-09-17T01:51:53;29.40;99.90
17740;DHT22;8990;33.226;-97.150;2022-09-17T01:54:25;29.40;99.90
17740;DHT22;8990;33.226;-97.150;2022-09-17T01:57:00;29.40;99.90
17740;DHT22;8990;33.226;-97.150;2022-09-17T01:59:32;29.40;99.90
17740;DHT22;8990;33.226;-97.150;2022-09-17T02:02:09;29.40;99.90
17740;DHT22;8990;33.226;-97.150;2022-09-17T02:04:44;29.30;99.90
17740;DHT22;8990;33.226;-97.150;2022-09-17T02:07:18;29.30;99.90
17740;DHT22;8990;33.226;-97.150;2022-09-17T02:09:51;29.30;99.90
17740;DHT22;8990;33.226;-97.150;2022-09-17T02:12:27;29.30;99.90
17740;DHT22;8990;33.226;-97.150;2022-09-17T02:15:01;29.20;99.90
17740;DHT22;8990;33.226;-97.150;2022-09-17T02:17:36;29.20;99.90
17740;DHT22;8990;33.226;-97.150;2022-09-17T02:20:07;29.10;99.90
17740;DHT22;8990;33.226;-97.150;2022-09-17T02:22:40;29.00;99.90
17740;DHT22;8990;33.226;-97.150;2022-09-17T02:25:16;28.90;99.90
17740;DHT22;8990;33.226;-97.150;2022-09-17T02:27:53;28.90;99.90
17740;DHT22;8990;33.226;-97.150;2022-09-17T02:30:25;28.90;99.90
17740;DHT22;8990;33.226;-97.150;2022-09-17T02:32:56;28.90;99.90
17740;DHT22;8990;33.226;-97.150;2022-09-17T02:35:26;28.80;99.90
17740;DHT22;8990;33.226;-97.150;2022-09-17T02:37:55;28.80;99.90
17740;DHT22;8990;33.226;-97.150;2022-09-17T02:40:28;28.70;99.90
17740;DHT22;8990;33.226;-97.150;2022-09-17T02:43:09;28.70;99.90
17740;DHT22;8990;33.226;-97.150;2022-09-17T02:45:48;28.70;99.90
17740;DHT22;8990;33.226;-97.150;2022-09-17T02:48:38;28.70;99.90
17740;DHT22;8990;33.226;-97.150;2022-09-17T02:51:21;28.80;99.90
17740;DHT22;8990;33.226;-97.150;2022-09-17T02:53:59;28.80;99.90
17740;DHT22;8990;33.226;-97.150;2022-09-17T02:56:42;28.80;99.90
17740;DHT22;8990;33.226;-97.150;2022-09-17T02:59:19;28.80;99.90
17740;DHT22;8990;33.226;-97.150;2022-09-17T03:01:55;28.80;99.90
17740;DHT22;8990;33.226;-97.150;2022-09-17T03:04:28;28.80;99.90
17740;DHT22;8990;33.226;-97.150;2022-09-17T03:06:58;28.80;99.90
17740;DHT22;8990;33.226;-97.150;2022-09-17T03:09:27;28.70;99.90
17740;DHT22;8990;33.226;-97.150;2022-09-17T03:11:57;28.70;99.90
17740;DHT22;8990;33.226;-97.150;2022-09-17T03:14:28;28.60;99.90
17740;DHT22;8990;33.226;-97.150;2022-09-17T03:16:57;28.60;99.90
17740;DHT22;8990;33.226;-97.150;2022-09-17T03:19:28;28.50;99.90
17740;DHT22;8990;33.226;-97.150;2022-09-17T03:21:57;28.40;99.90
17740;DHT22;8990;33.226;-97.150;2022-09-17T03:24:26;28.40;99.90
17740;DHT22;8990;33.226;-97.150;2022-09-17T03:26:55;28.30;99.90
17740;DHT22;8990;33.226;-97.150;2022-09-17T03:29:25;28.40;99.90
17740;DHT22;8990;33.226;-97.150;2022-09-17T03:31:55;28.40;99.90
17740;DHT22;8990;33.226;-97.150;2022-09-17T03:34:25;28.40;99.90
17740;DHT22;8990;33.226;-97.150;2022-09-17T03:36:56;28.40;99.90
17740;DHT22;8990;33.226;-97.150;2022-09-17T03:39:25;28.40;99.90
17740;DHT22;8990;33.226;-97.150;2022-09-17T03:41:55;28.40;99.90
17740;DHT22;8990;33.226;-97.150;2022-09-17T03:44:25;28.40;99.90
17740;DHT22;8990;33.226;-97.150;2022-09-17T03:46:54;28.40;99.90
17740;DHT22;8990;33.226;-97.150;2022-09-17T03:49:24;28.40;99.90
17740;DHT22;8990;33.226;-97.150;2022-09-17T03:51:54;28.40;99.90
17740;DHT22;8990;33.226;-97.150;2022-09-17T03:54:24;28.30;99.90
17740;DHT22;8990;33.226;-97.150;2022-09-17T03:56:54;28.30;99.90
17740;DHT22;8990;33.226;-97.150;2022-09-17T03:59:23;28.30;99.90
17740;DHT22;8990;33.226;-97.150;2022-09-17T04:01:53;28.30;99.90
17740;DHT22;8990;33.226;-97.150;2022-09-17T04:04:22;28.30;99.90
17740;DHT22;8990;33.226;-97.150;2022-09-17T04:06:51;28.30;99.90
17740;DHT22;8990;33.226;-97.150;2022-09-17T04:09:20;28.20;99.90
17740;DHT22;8990;33.226;-97.150;2022-09-17T04:11:51;28.20;99.90
17740;DHT22;8990;33.226;-97.150;2022-09-17T04:14:20;28.10;99.90
17740;DHT22;8990;33.226;-97.150;2022-09-17T04:16:49;28.00;99.90
17740;DHT22;8990;33.226;-97.150;2022-09-17T04:19:18;28.00;99.90
17740;DHT22;8990;33.226;-97.150;2022-09-17T04:21:48;27.90;99.90
17740;DHT22;8990;33.226;-97.150;2022-09-17T04:24:17;27.90;99.90
17740;DHT22;8990;33.226;-97.150;2022-09-17T04:26:47;27.90;99.90
17740;DHT22;8990;33.226;-97.150;2022-09-17T04:29:18;27.90;99.90
17740;DHT22;8990;33.226;-97.150;2022-09-17T04:31:47;27.80;99.90
17740;DHT22;8990;33.226;-97.150;2022-09-17T04:34:16;27.80;99.90
17740;DHT22;8990;33.226;-97.150;2022-09-17T04:36:46;27.80;99.90
17740;DHT22;8990;33.226;-97.150;2022-09-17T04:39:14;27.70;99.90
17740;DHT22;8990;33.226;-97.150;2022-09-17T04:41:44;27.70;99.90
17740;DHT22;8990;33.226;-97.150;2022-09-17T04:44:13;27.70;99.90
17740;DHT22;8990;33.226;-97.150;2022-09-17T04:46:44;27.70;99.90
17740;DHT22;8990;33.226;-97.150;2022-09-17T04:49:13;27.60;99.90
17740;DHT22;8990;33.226;-97.150;2022-09-17T04:51:44;27.60;99.90
17740;DHT22;8990;33.226;-97.150;2022-09-17T04:54:12;27.60;99.90
17740;DHT22;8990;33.226;-97.150;2022-09-17T04:56:42;27.60;99.90
17740;DHT22;8990;33.226;-97.150;2022-09-17T04:59:10;27.60;99.90
17740;DHT22;8990;33.226;-97.150;2022-09-17T05:01:40;27.60;99.90
17740;DHT22;8990;33.226;-97.150;2022-09-17T05:04:11;27.50;99.90
17740;DHT22;8990;33.226;-97.150;2022-09-17T05:06:41;27.50;99.90
17740;DHT22;8990;33.226;-97.150;2022-09-17T05:09:11;27.50;99.90
17740;DHT22;8990;33.226;-97.150;2022-09-17T05:11:41;27.50;99.90
17740;DHT22;8990;33.226;-97.150;2022-09-17T05:14:10;27.40;99.90
17740;DHT22;8990;33.226;-97.150;2022-09-17T05:16:40;27.40;99.90
17740;DHT22;8990;33.226;-97.150;2022-09-17T05:19:11;27.40;99.90
17740;DHT22;8990;33.226;-97.150;2022-09-17T05:21:41;27.30;99.90
17740;DHT22;8990;33.226;-97.150;2022-09-17T05:24:10;27.30;99.90
17740;DHT22;8990;33.226;-97.150;2022-09-17T05:26:39;27.20;99.90
17740;DHT22;8990;33.226;-97.150;2022-09-17T05:29:08;27.20;99.90
17740;DHT22;8990;33.226;-97.150;2022-09-17T05:31:38;27.10;99.90
17740;DHT22;8990;33.226;-97.150;2022-09-17T05:34:08;27.10;99.90
17740;DHT22;8990;33.226;-97.150;2022-09-17T05:36:39;27.20;99.90
17740;DHT22;8990;33.226;-97.150;2022-09-17T05:39:08;27.10;99.90
17740;DHT22;8990;33.226;-97.150;2022-09-17T05:41:37;27.20;99.90
17740;DHT22;8990;33.226;-97.150;2022-09-17T05:44:06;27.20;99.90
17740;DHT22;8990;33.226;-97.150;2022-09-17T05:46:36;27.20;99.90
17740;DHT22;8990;33.226;-97.150;2022-09-17T05:49:05;27.10;99.90
17740;DHT22;8990;33.226;-97.150;2022-09-17T05:51:35;27.10;99.90
17740;DHT22;8990;33.226;-97.150;2022-09-17T05:54:06;27.10;99.90
17740;DHT22;8990;33.226;-97.150;2022-09-17T05:56:36;27.00;99.90
17740;DHT22;8990;33.226;-97.150;2022-09-17T05:59:06;27.00;99.90
17740;DHT22;8990;33.226;-97.150;2022-09-17T06:01:35;26.90;99.90
17740;DHT22;8990;33.226;-97.150;2022-09-17T06:04:05;26.90;99.90
17740;DHT22;8990;33.226;-97.150;2022-09-17T06:06:34;26.90;99.90
17740;DHT22;8990;33.226;-97.150;2022-09-17T06:09:06;26.80;99.90
17740;DHT22;8990;33.226;-97.150;2022-09-17T06:11:37;26.80;99.90
17740;DHT22;8990;33.226;-97.150;2022-09-17T06:14:07;26.70;99.90
17740;DHT22;8990;33.226;-97.150;2022-09-17T06:16:36;26.70;99.90
17740;DHT22;8990;33.226;-97.150;2022-09-17T06:19:06;26.70;99.90
17740;DHT22;8990;33.226;-97.150;2022-09-17T06:21:36;26.60;99.90
17740;DHT22;8990;33.226;-97.150;2022-09-17T06:24:07;26.50;99.90
17740;DHT22;8990;33.226;-97.150;2022-09-17T06:26:36;26.50;99.90
17740;DHT22;8990;33.226;-97.150;2022-09-17T06:29:06;26.50;99.90
17740;DHT22;8990;33.226;-97.150;2022-09-17T06:31:36;26.50;99.90
17740;DHT22;8990;33.226;-97.150;2022-09-17T06:34:05;26.50;99.90
17740;DHT22;8990;33.226;-97.150;2022-09-17T06:36:35;26.50;99.90
17740;DHT22;8990;33.226;-97.150;2022-09-17T06:39:05;26.40;99.90
17740;DHT22;8990;33.226;-97.150;2022-09-17T06:41:35;26.40;99.90
17740;DHT22;8990;33.226;-97.150;2022-09-17T06:44:04;26.40;99.90
17740;DHT22;8990;33.226;-97.150;2022-09-17T06:46:34;26.30;99.90
17740;DHT22;8990;33.226;-97.150;2022-09-17T06:49:03;26.40;99.90
17740;DHT22;8990;33.226;-97.150;2022-09-17T06:51:32;26.40;99.90
17740;DHT22;8990;33.226;-97.150;2022-09-17T06:54:01;26.30;99.90
17740;DHT22;8990;33.226;-97.150;2022-09-17T06:56:32;26.30;99.90
17740;DHT22;8990;33.226;-97.150;2022-09-17T06:59:02;26.30;99.90
17740;DHT22;8990;33.226;-97.150;2022-09-17T07:01:31;26.30;99.90
17740;DHT22;8990;33.226;-97.150;2022-09-17T07:04:02;26.30;99.90
17740;DHT22;8990;33.226;-97.150;2022-09-17T07:06:31;26.30;99.90
17740;DHT22;8990;33.226;-97.150;2022-09-17T07:09:00;26.30;99.90
17740;DHT22;8990;33.226;-97.150;2022-09-17T07:11:31;26.30;99.90
17740;DHT22;8990;33.226;-97.150;2022-09-17T07:14:00;26.20;99.90
17740;DHT22;8990;33.226;-97.150;2022-09-17T07:16:30;26.20;99.90
17740;DHT22;8990;33.226;-97.150;2022-09-17T07:19:02;26.20;99.90
17740;DHT22;8990;33.226;-97.150;2022-09-17T07:21:31;26.30;99.90
17740;DHT22;8990;33.226;-97.150;2022-09-17T07:24:02;26.20;99.90
17740;DHT22;8990;33.226;-97.150;2022-09-17T07:26:33;26.20;99.90
17740;DHT22;8990;33.226;-97.150;2022-09-17T07:29:02;26.10;99.90
17740;DHT22;8990;33.226;-97.150;2022-09-17T07:31:31;26.10;99.90
17740;DHT22;8990;33.226;-97.150;2022-09-17T07:34:01;26.10;99.90
17740;DHT22;8990;33.226;-97.150;2022-09-17T07:36:29;26.00;99.90
17740;DHT22;8990;33.226;-97.150;2022-09-17T07:38:59;26.00;99.90
17740;DHT22;8990;33.226;-97.150;2022-09-17T07:41:28;25.90;99.90
17740;DHT22;8990;33.226;-97.150;2022-09-17T07:43:59;25.90;99.90
17740;DHT22;8990;33.226;-97.150;2022-09-17T07:46:30;25.90;99.90
17740;DHT22;8990;33.226;-97.150;2022-09-17T07:48:58;25.90;99.90
17740;DHT22;8990;33.226;-97.150;2022-09-17T07:51:29;25.90;99.90
17740;DHT22;8990;33.226;-97.150;2022-09-17T07:53:59;25.90;99.90
17740;DHT22;8990;33.226;-97.150;2022-09-17T07:56:28;25.80;99.90
17740;DHT22;8990;33.226;-97.150;2022-09-17T07:59:01;25.80;99.90
17740;DHT22;8990;33.226;-97.150;2022-09-17T08:01:32;25.80;99.90
17740;DHT22;8990;33.226;-97.150;2022-09-17T08:04:02;25.80;99.90
17740;DHT22;8990;33.226;-97.150;2022-09-17T08:06:36;25.80;99.90
17740;DHT22;8990;33.226;-97.150;2022-09-17T08:09:07;25.70;99.90
17740;DHT22;8990;33.226;-97.150;2022-09-17T08:11:36;25.70;99.90
17740;DHT22;8990;33.226;-97.150;2022-09-17T08:14:09;25.70;99.90
17740;DHT22;8990;33.226;-97.150;2022-09-17T08:16:40;25.70;99.90
17740;DHT22;8990;33.226;-97.150;2022-09-17T08:19:11;25.70;99.90
17740;DHT22;8990;33.226;-97.150;2022-09-17T08:21:42;25.70;99.90
17740;DHT22;8990;33.226;-97.150;2022-09-17T08:24:11;25.70;99.90
17740;DHT22;8990;33.226;-97.150;2022-09-17T08:26:41;25.70;99.90
17740;DHT22;8990;33.226;-97.150;2022-09-17T08:29:12;25.60;99.90
17740;DHT22;8990;33.226;-97.150;2022-09-17T08:31:41;25.60;99.90
17740;DHT22;8990;33.226;-97.150;2022-09-17T08:34:10;25.60;99.90
17740;DHT22;8990;33.226;-97.150;2022-09-17T08:36:39;25.50;99.90
17740;DHT22;8990;33.226;-97.150;2022-09-17T08:39:08;25.50;99.90
17740;DHT22;8990;33.226;-97.150;2022-09-17T08:41:54;25.60;99.90
17740;DHT22;8990;33.226;-97.150;2022-09-17T08:44:32;25.50;99.90
17740;DHT22;8990;33.226;-97.150;2022-09-17T08:47:14;25.50;99.90
17740;DHT22;8990;33.226;-97.150;2022-09-17T08:49:49;25.50;99.90
17740;DHT22;8990;33.226;-97.150;2022-09-17T08:55:27;25.60;99.90
17740;DHT22;8990;33.226;-97.150;2022-09-17T08:58:19;25.60;99.90
17740;DHT22;8990;33.226;-97.150;2022-09-17T09:01:01;25.50;99.90
17740;DHT22;8990;33.226;-97.150;2022-09-17T09:03:45;25.50;99.90
17740;DHT22;8990;33.226;-97.150;2022-09-17T09:06:17;25.50;99.90
17740;DHT22;8990;33.226;-97.150;2022-09-17T09:08:50;25.50;99.90
17740;DHT22;8990;33.226;-97.150;2022-09-17T09:11:25;25.40;99.90
17740;DHT22;8990;33.226;-97.150;2022-09-17T09:14:00;25.40;99.90
17740;DHT22;8990;33.226;-97.150;2022-09-17T09:16:38;25.40;99.90
17740;DHT22;8990;33.226;-97.150;2022-09-17T09:19:22;25.30;99.90
17740;DHT22;8990;33.226;-97.150;2022-09-17T09:22:13;25.30;99.90
17740;DHT22;8990;33.226;-97.150;2022-09-17T09:24:58;25.30;99.90
17740;DHT22;8990;33.226;-97.150;2022-09-17T09:27:37;25.30;99.90
17740;DHT22;8990;33.226;-97.150;2022-09-17T09:30:11;25.20;99.90
17740;DHT22;8990;33.226;-97.150;2022-09-17T09:32:54;25.20;99.90
17740;DHT22;8990;33.226;-97.150;2022-09-17T09:35:28;25.20;99.90
17740;DHT22;8990;33.226;-97.150;2022-09-17T09:38:01;25.20;99.90
17740;DHT22;8990;33.226;-97.150;2022-09-17T09:40:36;25.20;99.90
17740;DHT22;8990;33.226;-97.150;2022-09-17T09:43:16;25.20;99.90
17740;DHT22;8990;33.226;-97.150;2022-09-17T09:46:08;25.30;99.90
17740;DHT22;8990;33.226;-97.150;2022-09-17T09:48:50;25.20;99.90
17740;DHT22;8990;33.226;-97.150;2022-09-17T09:51:29;25.20;99.90
17740;DHT22;8990;33.226;-97.150;2022-09-17T09:54:12;25.10;99.90
17740;DHT22;8990;33.226;-97.150;2022-09-17T09:56:54;25.10;99.90
17740;DHT22;8990;33.226;-97.150;2022-09-17T09:59:24;25.10;99.90
17740;DHT22;8990;33.226;-97.150;2022-09-17T10:01:54;25.20;99.90
17740;DHT22;8990;33.226;-97.150;2022-09-17T10:04:26;25.10;99.90
17740;DHT22;8990;33.226;-97.150;2022-09-17T10:07:01;25.10;99.90
17740;DHT22;8990;33.226;-97.150;2022-09-17T10:09:31;25.10;99.90
17740;DHT22;8990;33.226;-97.150;2022-09-17T10:12:05;25.10;99.90
17740;DHT22;8990;33.226;-97.150;2022-09-17T10:14:35;25.10;99.90
17740;DHT22;8990;33.226;-97.150;2022-09-17T10:17:25;25.10;99.90
17740;DHT22;8990;33.226;-97.150;2022-09-17T10:20:18;25.10;99.90
17740;DHT22;8990;33.226;-97.150;2022-09-17T10:22:47;25.10;99.90
17740;DHT22;8990;33.226;-97.150;2022-09-17T10:25:28;25.10;99.90
17740;DHT22;8990;33.226;-97.150;2022-09-17T10:28:00;25.10;99.90
17740;DHT22;8990;33.226;-97.150;2022-09-17T10:30:31;25.10;99.90
17740;DHT22;8990;33.226;-97.150;2022-09-17T10:33:18;25.10;99.90
17740;DHT22;8990;33.226;-97.150;2022-09-17T10:36:01;25.10;99.90
17740;DHT22;8990;33.226;-97.150;2022-09-17T10:38:34;25.10;99.90
17740;DHT22;8990;33.226;-97.150;2022-09-17T10:41:12;25.10;99.90
17740;DHT22;8990;33.226;-97.150;2022-09-17T10:43:43;25.10;99.90
17740;DHT22;8990;33.226;-97.150;2022-09-17T10:46:16;25.10;99.90
17740;DHT22;8990;33.226;-97.150;2022-09-17T10:48:55;25.00;99.90
17740;DHT22;8990;33.226;-97.150;2022-09-17T10:51:27;25.00;99.90
17740;DHT22;8990;33.226;-97.150;2022-09-17T10:56:51;25.00;99.90
17740;DHT22;8990;33.226;-97.150;2022-09-17T10:59:40;25.00;99.90
17740;DHT22;8990;33.226;-97.150;2022-09-17T11:05:26;25.00;99.90
17740;DHT22;8990;33.226;-97.150;2022-09-17T11:08:05;25.00;99.90
17740;DHT22;8990;33.226;-97.150;2022-09-17T11:10:40;25.00;99.90
17740;DHT22;8990;33.226;-97.150;2022-09-17T11:13:23;25.00;99.90
17740;DHT22;8990;33.226;-97.150;2022-09-17T11:16:07;25.00;99.90
17740;DHT22;8990;33.226;-97.150;2022-09-17T11:18:40;25.00;99.90
17740;DHT22;8990;33.226;-97.150;2022-09-17T11:21:34;25.00;99.90
17740;DHT22;8990;33.226;-97.150;2022-09-17T11:24:36;24.90;99.90
17740;DHT22;8990;33.226;-97.150;2022-09-17T11:27:24;24.90;99.90
17740;DHT22;8990;33.226;-97.150;2022-09-17T11:30:03;24.90;99.90
17740;DHT22;8990;33.226;-97.150;2022-09-17T11:35:35;24.90;99.90
17740;DHT22;8990;33.226;-97.150;2022-09-17T11:38:09;24.90;99.90
17740;DHT22;8990;33.226;-97.150;2022-09-17T11:40:45;25.00;99.90
17740;DHT22;8990;33.226;-97.150;2022-09-17T11:43:20;24.90;99.90
17740;DHT22;8990;33.226;-97.150;2022-09-17T11:45:58;24.90;99.90
17740;DHT22;8990;33.226;-97.150;2022-09-17T11:48:34;24.90;99.90
17740;DHT22;8990;33.226;-97.150;2022-09-17T11:51:11;24.90;99.90
17740;DHT22;8990;33.226;-97.150;2022-09-17T11:53:45;24.90;99.90
17740;DHT22;8990;33.226;-97.150;2022-09-17T11:56:23;24.90;99.90
17740;DHT22;8990;33.226;-97.150;2022-09-17T11:58:59;24.90;99.90
17740;DHT22;8990;33.226;-97.150;2022-09-17T12:01:33;24.90;99.90
17740;DHT22;8990;33.226;-97.150;2022-09-17T12:04:18;24.90;99.90
17740;DHT22;8990;33.226;-97.150;2022-09-17T12:06:58;24.90;99.90
17740;DHT22;8990;33.226;-97.150;2022-09-17T12:09:30;24.90;99.90
17740;DHT22;8990;33.226;-97.150;2022-09-17T12:12:05;24.80;99.90
17740;DHT22;8990;33.226;-97.150;2022-09-17T12:14:43;24.80;99.90
17740;DHT22;8990;33.226;-97.150;2022-09-17T12:17:21;24.80;99.90
17740;DHT22;8990;33.226;-97.150;2022-09-17T12:19:55;24.80;99.90
17740;DHT22;8990;33.226;-97.150;2022-09-17T12:22:28;24.80;99.90
17740;DHT22;8990;33.226;-97.150;2022-09-17T12:25:00;24.80;99.90
17740;DHT22;8990;33.226;-97.150;2022-09-17T12:27:38;24.80;99.90
17740;DHT22;8990;33.226;-97.150;2022-09-17T12:30:12;24.80;99.90
17740;DHT22;8990;33.226;-97.150;2022-09-17T12:33:02;24.80;99.90
17740;DHT22;8990;33.226;-97.150;2022-09-17T12:41:45;24.80;99.90
17740;DHT22;8990;33.226;-97.150;2022-09-17T12:44:29;24.90;99.90
17740;DHT22;8990;33.226;-97.150;2022-09-17T12:47:15;24.90;99.90
17740;DHT22;8990;33.226;-97.150;2022-09-17T12:49:59;25.00;99.90
17740;DHT22;8990;33.226;-97.150;2022-09-17T12:52:39;25.00;99.90
17740;DHT22;8990;33.226;-97.150;2022-09-17T12:55:30;25.10;99.90
17740;DHT22;8990;33.226;-97.150;2022-09-17T12:58:12;25.20;99.90
17740;DHT22;8990;33.226;-97.150;2022-09-17T13:00:50;25.30;99.90
17740;DHT22;8990;33.226;-97.150;2022-09-17T13:03:24;25.30;99.90
17740;DHT22;8990;33.226;-97.150;2022-09-17T13:09:33;25.50;99.90
17740;DHT22;8990;33.226;-97.150;2022-09-17T13:12:14;25.60;99.90
17740;DHT22;8990;33.226;-97.150;2022-09-17T13:17:52;25.70;99.90
17740;DHT22;8990;33.226;-97.150;2022-09-17T13:20:26;25.70;99.90
17740;DHT22;8990;33.226;-97.150;2022-09-17T13:22:58;25.70;99.90
17740;DHT22;8990;33.226;-97.150;2022-09-17T13:25:27;25.70;99.90
17740;DHT22;8990;33.226;-97.150;2022-09-17T13:28:08;25.70;99.90
17740;DHT22;8990;33.226;-97.150;2022-09-17T13:30:55;25.80;99.90
17740;DHT22;8990;33.226;-97.150;2022-09-17T13:33:57;25.90;99.90
17740;DHT22;8990;33.226;-97.150;2022-09-17T13:36:51;26.00;99.90
17740;DHT22;8990;33.226;-97.150;2022-09-17T13:39:41;26.10;99.90
17740;DHT22;8990;33.226;-97.150;2022-09-17T13:42:18;26.20;99.90
17740;DHT22;8990;33.226;-97.150;2022-09-17T13:44:51;26.20;99.90
17740;DHT22;8990;33.226;-97.150;2022-09-17T13:47:24;26.40;99.90
17740;DHT22;8990;33.226;-97.150;2022-09-17T13:50:02;26.50;99.90
17740;DHT22;8990;33.226;-97.150;2022-09-17T13:52:41;26.50;99.90
17740;DHT22;8990;33.226;-97.150;2022-09-17T13:55:30;26.60;99.90
17740;DHT22;8990;33.226;-97.150;2022-09-17T13:58:03;26.70;99.90
17740;DHT22;8990;33.226;-97.150;2022-09-17T14:00:50;26.70;99.90
17740;DHT22;8990;33.226;-97.150;2022-09-17T14:03:51;26.80;99.90
17740;DHT22;8990;33.226;-97.150;2022-09-17T14:06:50;26.90;99.90
17740;DHT22;8990;33.226;-97.150;2022-09-17T14:09:34;27.10;99.90
17740;DHT22;8990;33.226;-97.150;2022-09-17T14:18:55;27.30;99.90
17740;DHT22;8990;33.226;-97.150;2022-09-17T14:21:28;27.30;99.90
17740;DHT22;8990;33.226;-97.150;2022-09-17T14:24:01;27.40;99.90
17740;DHT22;8990;33.226;-97.150;2022-09-17T14:26:52;27.50;99.90
17740;DHT22;8990;33.226;-97.150;2022-09-17T14:29:47;27.60;99.90
17740;DHT22;8990;33.226;-97.150;2022-09-17T14:32:21;27.60;99.90
17740;DHT22;8990;33.226;-97.150;2022-09-17T14:34:53;27.60;99.90
17740;DHT22;8990;33.226;-97.150;2022-09-17T14:37:23;27.80;99.90
17740;DHT22;8990;33.226;-97.150;2022-09-17T14:39:55;27.90;99.90
17740;DHT22;8990;33.226;-97.150;2022-09-17T14:42:30;27.90;99.90
17740;DHT22;8990;33.226;-97.150;2022-09-17T14:45:06;27.90;99.90
17740;DHT22;8990;33.226;-97.150;2022-09-17T14:47:38;28.00;99.90
17740;DHT22;8990;33.226;-97.150;2022-09-17T14:50:19;28.00;99.90
17740;DHT22;8990;33.226;-97.150;2022-09-17T14:52:49;28.10;99.90
17740;DHT22;8990;33.226;-97.150;2022-09-17T14:55:21;28.20;99.90
17740;DHT22;8990;33.226;-97.150;2022-09-17T14:57:53;28.30;99.90
17740;DHT22;8990;33.226;-97.150;2022-09-17T15:00:25;28.30;99.90
17740;DHT22;8990;33.226;-97.150;2022-09-17T15:02:56;28.40;99.90
17740;DHT22;8990;33.226;-97.150;2022-09-17T15:05:28;28.60;99.90
17740;DHT22;8990;33.226;-97.150;2022-09-17T15:08:09;28.60;99.90
17740;DHT22;8990;33.226;-97.150;2022-09-17T15:10:48;28.70;99.90
17740;DHT22;8990;33.226;-97.150;2022-09-17T15:13:19;28.70;99.90
17740;DHT22;8990;33.226;-97.150;2022-09-17T15:15:55;28.80;99.90
17740;DHT22;8990;33.226;-97.150;2022-09-17T15:18:34;28.90;99.90
17740;DHT22;8990;33.226;-97.150;2022-09-17T15:21:10;28.90;99.90
17740;DHT22;8990;33.226;-97.150;2022-09-17T15:23:42;29.00;99.90
17740;DHT22;8990;33.226;-97.150;2022-09-17T15:26:15;29.10;99.90
17740;DHT22;8990;33.226;-97.150;2022-09-17T15:28:49;29.20;99.90
17740;DHT22;8990;33.226;-97.150;2022-09-17T15:31:19;29.30;99.90
17740;DHT22;8990;33.226;-97.150;2022-09-17T15:33:49;29.30;99.90
17740;DHT22;8990;33.226;-97.150;2022-09-17T15:36:20;29.50;99.90
17740;DHT22;8990;33.226;-97.150;2022-09-17T15:38:50;29.70;99.90
17740;DHT22;8990;33.226;-97.150;2022-09-17T15:41:28;29.70;99.90
17740;DHT22;8990;33.226;-97.150;2022-09-17T15:44:13;29.80;99.90
17740;DHT22;8990;33.226;-97.150;2022-09-17T15:46:43;29.90;99.90
17740;DHT22;8990;33.226;-97.150;2022-09-17T15:49:33;29.90;99.90
17740;DHT22;8990;33.226;-97.150;2022-09-17T15:52:29;29.90;99.90
17740;DHT22;8990;33.226;-97.150;2022-09-17T15:54:59;30.20;99.90
17740;DHT22;8990;33.226;-97.150;2022-09-17T15:57:31;30.10;99.90
17740;DHT22;8990;33.226;-97.150;2022-09-17T16:00:11;30.10;99.90
17740;DHT22;8990;33.226;-97.150;2022-09-17T16:02:40;30.20;99.90
17740;DHT22;8990;33.226;-97.150;2022-09-17T16:08:21;30.40;99.90
17740;DHT22;8990;33.226;-97.150;2022-09-17T16:10:51;30.50;99.90
17740;DHT22;8990;33.226;-97.150;2022-09-17T16:13:22;30.50;99.90
17740;DHT22;8990;33.226;-97.150;2022-09-17T16:15:51;30.60;99.90
17740;DHT22;8990;33.226;-97.150;2022-09-17T16:18:20;30.70;99.90
17740;DHT22;8990;33.226;-97.150;2022-09-17T16:20:49;30.80;99.90
17740;DHT22;8990;33.226;-97.150;2022-09-17T16:23:18;30.80;99.90
17740;DHT22;8990;33.226;-97.150;2022-09-17T16:25:47;30.70;99.90
17740;DHT22;8990;33.226;-97.150;2022-09-17T16:28:18;30.80;99.90
17740;DHT22;8990;33.226;-97.150;2022-09-17T16:30:50;30.80;99.90
17740;DHT22;8990;33.226;-97.150;2022-09-17T16:33:19;30.90;99.90
17740;DHT22;8990;33.226;-97.150;2022-09-17T16:35:48;31.00;99.90